sensor_id;sensor_type;location;lat;lon;timestamp;P1;durP1;ratioP1;P2;durP2;ratioP2
52590;SDS011;38483;42.620;25.394;2023-05-15T00:02:24;37.87;;;26.50;;
52590;SDS011;38483;42.620;25.394;2023-05-15T00:04:52;30.30;;;21.13;;
52590;SDS011;38483;42.620;25.394;2023-05-15T00:07:19;25.93;;;16.67;;
52590;SDS011;38483;42.620;25.394;2023-05-15T00:09:46;21.67;;;16.60;;
52590;SDS011;38483;42.620;25.394;2023-05-15T00:12:13;28.50;;;19.10;;
52590;SDS011;38483;42.620;25.394;2023-05-15T00:14:41;27.00;;;18.80;;
52590;SDS011;38483;42.620;25.394;2023-05-15T00:17:08;18.90;;;14.40;;
52590;SDS011;38483;42.620;25.394;2023-05-15T00:19:35;25.33;;;16.30;;
52590;SDS011;38483;42.620;25.394;2023-05-15T00:22:02;21.13;;;15.20;;
52590;SDS011;38483;42.620;25.394;2023-05-15T00:24:29;21.73;;;16.50;;
52590;SDS011;38483;42.620;25.394;2023-05-15T00:26:58;16.90;;;13.53;;
52590;SDS011;38483;42.620;25.394;2023-05-15T00:29:25;15.53;;;12.97;;
52590;SDS011;38483;42.620;25.394;2023-05-15T00:31:52;12.90;;;10.40;;
52590;SDS011;38483;42.620;25.394;2023-05-15T00:34:20;13.67;;;10.00;;
52590;SDS011;38483;42.620;25.394;2023-05-15T00:36:47;15.33;;;10.37;;
52590;SDS011;38483;42.620;25.394;2023-05-15T00:39:14;12.73;;;10.33;;
52590;SDS011;38483;42.620;25.394;2023-05-15T00:41:42;12.43;;;9.67;;
52590;SDS011;38483;42.620;25.394;2023-05-15T00:44:11;12.00;;;10.30;;
52590;SDS011;38483;42.620;25.394;2023-05-15T00:46:38;12.47;;;9.47;;
52590;SDS011;38483;42.620;25.394;2023-05-15T00:49:07;11.13;;;8.97;;
52590;SDS011;38483;42.620;25.394;2023-05-15T00:51:39;12.77;;;10.00;;
52590;SDS011;38483;42.620;25.394;2023-05-15T00:54:10;11.77;;;9.67;;
52590;SDS011;38483;42.620;25.394;2023-05-15T00:56:37;11.63;;;10.43;;
52590;SDS011;38483;42.620;25.394;2023-05-15T00:59:05;12.40;;;10.67;;
52590;SDS011;38483;42.620;25.394;2023-05-15T01:01:33;13.87;;;11.00;;
52590;SDS011;38483;42.620;25.394;2023-05-15T01:04:01;12.77;;;11.07;;
52590;SDS011;38483;42.620;25.394;2023-05-15T01:06:28;12.17;;;10.13;;
52590;SDS011;38483;42.620;25.394;2023-05-15T01:08:59;14.03;;;11.10;;
52590;SDS011;38483;42.620;25.394;2023-05-15T01:11:27;12.77;;;10.67;;
52590;SDS011;38483;42.620;25.394;2023-05-15T01:14:03;16.20;;;12.13;;
52590;SDS011;38483;42.620;25.394;2023-05-15T01:16:32;13.77;;;11.53;;
52590;SDS011;38483;42.620;25.394;2023-05-15T01:19:02;14.87;;;11.17;;
52590;SDS011;38483;42.620;25.394;2023-05-15T01:24:15;13.07;;;11.00;;
52590;SDS011;38483;42.620;25.394;2023-05-15T01:32:48;11.10;;;9.80;;
52590;SDS011;38483;42.620;25.394;2023-05-15T01:35:43;12.03;;;10.00;;
52590;SDS011;38483;42.620;25.394;2023-05-15T01:38:18;14.73;;;11.87;;
52590;SDS011;38483;42.620;25.394;2023-05-15T01:40:56;14.60;;;11.07;;
52590;SDS011;38483;42.620;25.394;2023-05-15T01:43:30;12.87;;;10.50;;
52590;SDS011;38483;42.620;25.394;2023-05-15T01:46:00;14.20;;;10.30;;
52590;SDS011;38483;42.620;25.394;2023-05-15T01:48:28;12.97;;;10.70;;
52590;SDS011;38483;42.620;25.394;2023-05-15T01:51:00;13.17;;;9.83;;
52590;SDS011;38483;42.620;25.394;2023-05-15T01:53:29;13.13;;;8.93;;
52590;SDS011;38483;42.620;25.394;2023-05-15T01:55:58;9.77;;;8.70;;
52590;SDS011;38483;42.620;25.394;2023-05-15T01:58:26;11.23;;;8.83;;
52590;SDS011;38483;42.620;25.394;2023-05-15T02:00:54;8.40;;;7.50;;
52590;SDS011;38483;42.620;25.394;2023-05-15T02:03:22;11.23;;;8.97;;
52590;SDS011;38483;42.620;25.394;2023-05-15T02:05:50;11.30;;;10.13;;
52590;SDS011;38483;42.620;25.394;2023-05-15T02:08:19;14.40;;;10.57;;
52590;SDS011;38483;42.620;25.394;2023-05-15T02:10:46;13.00;;;11.10;;
52590;SDS011;38483;42.620;25.394;2023-05-15T02:13:18;14.30;;;11.47;;
52590;SDS011;38483;42.620;25.394;2023-05-15T02:15:47;13.33;;;11.03;;
52590;SDS011;38483;42.620;25.394;2023-05-15T02:18:14;15.20;;;11.27;;
52590;SDS011;38483;42.620;25.394;2023-05-15T02:20:41;13.97;;;11.37;;
52590;SDS011;38483;42.620;25.394;2023-05-15T02:23:08;16.17;;;13.50;;
52590;SDS011;38483;42.620;25.394;2023-05-15T02:28:37;17.47;;;13.27;;
52590;SDS011;38483;42.620;25.394;2023-05-15T02:31:17;17.20;;;13.80;;
52590;SDS011;38483;42.620;25.394;2023-05-15T02:36:31;17.73;;;13.40;;
52590;SDS011;38483;42.620;25.394;2023-05-15T02:39:01;19.07;;;13.57;;
52590;SDS011;38483;42.620;25.394;2023-05-15T02:41:29;14.57;;;12.33;;
52590;SDS011;38483;42.620;25.394;2023-05-15T02:43:58;15.13;;;11.37;;
52590;SDS011;38483;42.620;25.394;2023-05-15T02:46:26;15.73;;;11.17;;
52590;SDS011;38483;42.620;25.394;2023-05-15T02:48:54;15.23;;;10.63;;
52590;SDS011;38483;42.620;25.394;2023-05-15T02:51:22;15.83;;;10.90;;
52590;SDS011;38483;42.620;25.394;2023-05-15T02:53:49;15.07;;;10.33;;
52590;SDS011;38483;42.620;25.394;2023-05-15T02:56:17;11.97;;;9.93;;
52590;SDS011;38483;42.620;25.394;2023-05-15T02:58:44;11.40;;;10.20;;
52590;SDS011;38483;42.620;25.394;2023-05-15T03:01:11;14.03;;;11.77;;
52590;SDS011;38483;42.620;25.394;2023-05-15T03:03:38;11.60;;;9.60;;
52590;SDS011;38483;42.620;25.394;2023-05-15T03:06:05;12.50;;;9.90;;
52590;SDS011;38483;42.620;25.394;2023-05-15T03:08:32;10.93;;;9.50;;
52590;SDS011;38483;42.620;25.394;2023-05-15T03:10:59;10.43;;;9.27;;
52590;SDS011;38483;42.620;25.394;2023-05-15T03:13:26;15.47;;;10.00;;
52590;SDS011;38483;42.620;25.394;2023-05-15T03:15:54;11.47;;;9.97;;
52590;SDS011;38483;42.620;25.394;2023-05-15T03:18:21;11.13;;;9.07;;
52590;SDS011;38483;42.620;25.394;2023-05-15T03:20:50;13.57;;;9.57;;
52590;SDS011;38483;42.620;25.394;2023-05-15T03:23:18;10.87;;;9.50;;
52590;SDS011;38483;42.620;25.394;2023-05-15T03:25:45;11.60;;;9.33;;
52590;SDS011;38483;42.620;25.394;2023-05-15T03:28:12;13.17;;;10.30;;
52590;SDS011;38483;42.620;25.394;2023-05-15T03:30:42;11.87;;;9.57;;
52590;SDS011;38483;42.620;25.394;2023-05-15T03:33:10;11.77;;;10.20;;
52590;SDS011;38483;42.620;25.394;2023-05-15T03:35:37;13.03;;;10.70;;
52590;SDS011;38483;42.620;25.394;2023-05-15T03:38:04;13.37;;;10.00;;
52590;SDS011;38483;42.620;25.394;2023-05-15T03:40:31;12.97;;;10.50;;
52590;SDS011;38483;42.620;25.394;2023-05-15T03:42:58;14.33;;;10.10;;
52590;SDS011;38483;42.620;25.394;2023-05-15T03:45:25;11.20;;;9.43;;
52590;SDS011;38483;42.620;25.394;2023-05-15T03:47:52;14.20;;;9.37;;
52590;SDS011;38483;42.620;25.394;2023-05-15T03:50:19;10.43;;;8.80;;
52590;SDS011;38483;42.620;25.394;2023-05-15T03:52:46;12.67;;;8.60;;
52590;SDS011;38483;42.620;25.394;2023-05-15T03:55:13;10.93;;;8.80;;
52590;SDS011;38483;42.620;25.394;2023-05-15T03:57:40;11.90;;;9.27;;
52590;SDS011;38483;42.620;25.394;2023-05-15T04:00:07;11.70;;;8.90;;
52590;SDS011;38483;42.620;25.394;2023-05-15T04:02:38;12.53;;;9.40;;
52590;SDS011;38483;42.620;25.394;2023-05-15T04:05:06;14.87;;;10.53;;
52590;SDS011;38483;42.620;25.394;2023-05-15T04:07:34;17.93;;;10.30;;
52590;SDS011;38483;42.620;25.394;2023-05-15T04:10:02;11.87;;;8.53;;
52590;SDS011;38483;42.620;25.394;2023-05-15T04:12:33;14.40;;;9.83;;
52590;SDS011;38483;42.620;25.394;2023-05-15T04:15:14;10.63;;;9.07;;
52590;SDS011;38483;42.620;25.394;2023-05-15T04:17:44;9.47;;;7.63;;
52590;SDS011;38483;42.620;25.394;2023-05-15T04:20:14;12.60;;;9.23;;
52590;SDS011;38483;42.620;25.394;2023-05-15T04:22:43;14.07;;;8.70;;
52590;SDS011;38483;42.620;25.394;2023-05-15T04:25:11;13.20;;;9.93;;
52590;SDS011;38483;42.620;25.394;2023-05-15T04:27:42;12.20;;;10.63;;
52590;SDS011;38483;42.620;25.394;2023-05-15T04:30:10;15.67;;;11.87;;
52590;SDS011;38483;42.620;25.394;2023-05-15T04:32:38;12.17;;;9.90;;
52590;SDS011;38483;42.620;25.394;2023-05-15T04:35:06;17.63;;;12.33;;
52590;SDS011;38483;42.620;25.394;2023-05-15T04:37:41;17.63;;;12.70;;
52590;SDS011;38483;42.620;25.394;2023-05-15T04:40:11;20.20;;;13.30;;
52590;SDS011;38483;42.620;25.394;2023-05-15T04:42:41;18.90;;;15.27;;
52590;SDS011;38483;42.620;25.394;2023-05-15T04:45:08;19.47;;;15.27;;
52590;SDS011;38483;42.620;25.394;2023-05-15T04:47:35;21.13;;;15.33;;
52590;SDS011;38483;42.620;25.394;2023-05-15T04:50:03;19.17;;;14.50;;
52590;SDS011;38483;42.620;25.394;2023-05-15T04:52:31;20.33;;;13.93;;
52590;SDS011;38483;42.620;25.394;2023-05-15T04:54:58;18.53;;;13.73;;
52590;SDS011;38483;42.620;25.394;2023-05-15T04:57:25;20.07;;;12.40;;
52590;SDS011;38483;42.620;25.394;2023-05-15T04:59:53;20.63;;;13.03;;
52590;SDS011;38483;42.620;25.394;2023-05-15T05:02:20;18.07;;;11.67;;
52590;SDS011;38483;42.620;25.394;2023-05-15T05:04:50;14.47;;;11.67;;
52590;SDS011;38483;42.620;25.394;2023-05-15T05:07:17;18.27;;;12.27;;
52590;SDS011;38483;42.620;25.394;2023-05-15T05:09:44;17.30;;;12.07;;
52590;SDS011;38483;42.620;25.394;2023-05-15T05:12:11;16.90;;;12.83;;
52590;SDS011;38483;42.620;25.394;2023-05-15T05:14:39;18.80;;;12.50;;
52590;SDS011;38483;42.620;25.394;2023-05-15T05:17:08;14.40;;;12.07;;
52590;SDS011;38483;42.620;25.394;2023-05-15T05:19:35;13.40;;;11.67;;
52590;SDS011;38483;42.620;25.394;2023-05-15T05:22:03;16.07;;;12.07;;
52590;SDS011;38483;42.620;25.394;2023-05-15T05:24:31;20.17;;;11.10;;
52590;SDS011;38483;42.620;25.394;2023-05-15T05:26:58;22.13;;;11.40;;
52590;SDS011;38483;42.620;25.394;2023-05-15T05:29:25;16.20;;;11.47;;
52590;SDS011;38483;42.620;25.394;2023-05-15T05:31:53;14.33;;;10.60;;
52590;SDS011;38483;42.620;25.394;2023-05-15T05:34:20;18.00;;;11.43;;
52590;SDS011;38483;42.620;25.394;2023-05-15T05:36:48;12.97;;;10.00;;
52590;SDS011;38483;42.620;25.394;2023-05-15T05:39:15;17.27;;;11.40;;
52590;SDS011;38483;42.620;25.394;2023-05-15T05:41:45;20.93;;;11.57;;
52590;SDS011;38483;42.620;25.394;2023-05-15T05:44:12;23.93;;;13.03;;
52590;SDS011;38483;42.620;25.394;2023-05-15T05:46:39;16.40;;;10.30;;
52590;SDS011;38483;42.620;25.394;2023-05-15T05:49:06;24.57;;;13.83;;
52590;SDS011;38483;42.620;25.394;2023-05-15T05:51:36;14.37;;;10.63;;
52590;SDS011;38483;42.620;25.394;2023-05-15T05:54:04;23.73;;;12.17;;
52590;SDS011;38483;42.620;25.394;2023-05-15T05:56:31;19.50;;;11.43;;
52590;SDS011;38483;42.620;25.394;2023-05-15T05:58:58;15.20;;;9.20;;
52590;SDS011;38483;42.620;25.394;2023-05-15T06:01:27;18.33;;;9.13;;
52590;SDS011;38483;42.620;25.394;2023-05-15T06:03:54;15.00;;;8.77;;
52590;SDS011;38483;42.620;25.394;2023-05-15T06:06:22;9.63;;;8.17;;
52590;SDS011;38483;42.620;25.394;2023-05-15T06:08:49;13.17;;;8.50;;
52590;SDS011;38483;42.620;25.394;2023-05-15T06:11:16;15.27;;;10.23;;
52590;SDS011;38483;42.620;25.394;2023-05-15T06:13:43;12.00;;;8.97;;
52590;SDS011;38483;42.620;25.394;2023-05-15T06:16:10;10.10;;;8.40;;
52590;SDS011;38483;42.620;25.394;2023-05-15T06:18:37;14.30;;;8.73;;
52590;SDS011;38483;42.620;25.394;2023-05-15T06:21:04;11.90;;;8.50;;
52590;SDS011;38483;42.620;25.394;2023-05-15T06:23:31;12.50;;;9.30;;
52590;SDS011;38483;42.620;25.394;2023-05-15T06:25:58;13.00;;;9.00;;
52590;SDS011;38483;42.620;25.394;2023-05-15T06:28:27;13.37;;;8.83;;
52590;SDS011;38483;42.620;25.394;2023-05-15T06:30:54;11.80;;;9.10;;
52590;SDS011;38483;42.620;25.394;2023-05-15T06:33:21;15.20;;;10.10;;
52590;SDS011;38483;42.620;25.394;2023-05-15T06:35:48;13.70;;;11.17;;
52590;SDS011;38483;42.620;25.394;2023-05-15T06:38:15;13.93;;;10.13;;
52590;SDS011;38483;42.620;25.394;2023-05-15T06:40:42;13.63;;;10.57;;
52590;SDS011;38483;42.620;25.394;2023-05-15T06:43:09;14.10;;;9.47;;
52590;SDS011;38483;42.620;25.394;2023-05-15T06:45:36;13.73;;;9.97;;
52590;SDS011;38483;42.620;25.394;2023-05-15T06:48:03;14.80;;;9.20;;
52590;SDS011;38483;42.620;25.394;2023-05-15T06:50:31;13.37;;;10.30;;
52590;SDS011;38483;42.620;25.394;2023-05-15T06:52:58;13.20;;;10.57;;
52590;SDS011;38483;42.620;25.394;2023-05-15T06:55:24;13.50;;;10.73;;
52590;SDS011;38483;42.620;25.394;2023-05-15T06:57:52;13.97;;;11.30;;
52590;SDS011;38483;42.620;25.394;2023-05-15T07:00:19;16.03;;;12.90;;
52590;SDS011;38483;42.620;25.394;2023-05-15T07:02:46;15.00;;;11.10;;
52590;SDS011;38483;42.620;25.394;2023-05-15T07:05:13;17.67;;;10.70;;
52590;SDS011;38483;42.620;25.394;2023-05-15T07:07:40;22.23;;;11.73;;
52590;SDS011;38483;42.620;25.394;2023-05-15T07:10:08;13.80;;;10.17;;
52590;SDS011;38483;42.620;25.394;2023-05-15T07:12:35;12.77;;;9.10;;
52590;SDS011;38483;42.620;25.394;2023-05-15T07:15:03;15.07;;;10.83;;
52590;SDS011;38483;42.620;25.394;2023-05-15T07:17:32;12.57;;;9.93;;
52590;SDS011;38483;42.620;25.394;2023-05-15T07:19:59;11.50;;;9.63;;
52590;SDS011;38483;42.620;25.394;2023-05-15T07:22:28;12.43;;;9.93;;
52590;SDS011;38483;42.620;25.394;2023-05-15T07:24:55;13.37;;;9.40;;
52590;SDS011;38483;42.620;25.394;2023-05-15T07:27:22;12.63;;;9.93;;
52590;SDS011;38483;42.620;25.394;2023-05-15T07:29:49;11.67;;;9.90;;
52590;SDS011;38483;42.620;25.394;2023-05-15T07:32:16;15.70;;;10.67;;
52590;SDS011;38483;42.620;25.394;2023-05-15T07:34:43;10.83;;;9.73;;
52590;SDS011;38483;42.620;25.394;2023-05-15T07:37:10;13.07;;;9.90;;
52590;SDS011;38483;42.620;25.394;2023-05-15T07:39:37;13.30;;;10.43;;
52590;SDS011;38483;42.620;25.394;2023-05-15T07:42:04;13.10;;;10.03;;
52590;SDS011;38483;42.620;25.394;2023-05-15T07:44:32;14.07;;;10.30;;
52590;SDS011;38483;42.620;25.394;2023-05-15T07:46:58;13.27;;;10.83;;
52590;SDS011;38483;42.620;25.394;2023-05-15T07:49:26;13.57;;;10.83;;
52590;SDS011;38483;42.620;25.394;2023-05-15T07:51:53;17.43;;;11.27;;
52590;SDS011;38483;42.620;25.394;2023-05-15T07:54:20;13.00;;;10.57;;
52590;SDS011;38483;42.620;25.394;2023-05-15T07:56:47;15.13;;;10.33;;
52590;SDS011;38483;42.620;25.394;2023-05-15T07:59:14;14.53;;;10.20;;
52590;SDS011;38483;42.620;25.394;2023-05-15T08:01:41;23.00;;;13.20;;
52590;SDS011;38483;42.620;25.394;2023-05-15T08:04:08;19.37;;;12.23;;
52590;SDS011;38483;42.620;25.394;2023-05-15T08:06:36;21.80;;;12.57;;
52590;SDS011;38483;42.620;25.394;2023-05-15T08:09:04;14.17;;;11.67;;
52590;SDS011;38483;42.620;25.394;2023-05-15T08:11:31;15.50;;;11.83;;
52590;SDS011;38483;42.620;25.394;2023-05-15T08:13:58;18.93;;;10.97;;
52590;SDS011;38483;42.620;25.394;2023-05-15T08:16:25;13.70;;;11.53;;
52590;SDS011;38483;42.620;25.394;2023-05-15T08:18:52;16.80;;;11.37;;
52590;SDS011;38483;42.620;25.394;2023-05-15T08:21:23;18.67;;;11.27;;
52590;SDS011;38483;42.620;25.394;2023-05-15T08:23:50;21.23;;;12.77;;
52590;SDS011;38483;42.620;25.394;2023-05-15T08:26:19;15.73;;;10.80;;
52590;SDS011;38483;42.620;25.394;2023-05-15T08:28:46;18.37;;;11.23;;
52590;SDS011;38483;42.620;25.394;2023-05-15T08:31:13;15.30;;;11.20;;
52590;SDS011;38483;42.620;25.394;2023-05-15T08:33:40;14.33;;;10.40;;
52590;SDS011;38483;42.620;25.394;2023-05-15T08:36:08;17.13;;;10.70;;
52590;SDS011;38483;42.620;25.394;2023-05-15T08:38:35;15.73;;;10.70;;
52590;SDS011;38483;42.620;25.394;2023-05-15T08:41:06;18.37;;;12.23;;
52590;SDS011;38483;42.620;25.394;2023-05-15T08:44:05;18.20;;;13.93;;
52590;SDS011;38483;42.620;25.394;2023-05-15T08:46:36;13.47;;;11.30;;
52590;SDS011;38483;42.620;25.394;2023-05-15T08:49:09;25.07;;;16.00;;
52590;SDS011;38483;42.620;25.394;2023-05-15T08:51:41;13.20;;;10.27;;
52590;SDS011;38483;42.620;25.394;2023-05-15T08:54:08;19.53;;;13.57;;
52590;SDS011;38483;42.620;25.394;2023-05-15T08:56:37;14.17;;;11.47;;
52590;SDS011;38483;42.620;25.394;2023-05-15T08:59:05;19.93;;;11.33;;
52590;SDS011;38483;42.620;25.394;2023-05-15T09:01:32;15.57;;;10.90;;
52590;SDS011;38483;42.620;25.394;2023-05-15T09:03:59;13.80;;;10.27;;
52590;SDS011;38483;42.620;25.394;2023-05-15T09:06:27;12.03;;;9.53;;
52590;SDS011;38483;42.620;25.394;2023-05-15T09:08:54;11.27;;;9.00;;
52590;SDS011;38483;42.620;25.394;2023-05-15T09:11:23;12.93;;;9.30;;
52590;SDS011;38483;42.620;25.394;2023-05-15T09:13:51;20.03;;;11.03;;
52590;SDS011;38483;42.620;25.394;2023-05-15T09:16:19;11.50;;;8.40;;
52590;SDS011;38483;42.620;25.394;2023-05-15T09:18:47;12.63;;;9.90;;
52590;SDS011;38483;42.620;25.394;2023-05-15T09:21:25;14.57;;;10.20;;
52590;SDS011;38483;42.620;25.394;2023-05-15T09:23:54;14.33;;;9.50;;
52590;SDS011;38483;42.620;25.394;2023-05-15T09:26:41;17.23;;;12.07;;
52590;SDS011;38483;42.620;25.394;2023-05-15T09:29:08;15.13;;;10.70;;
52590;SDS011;38483;42.620;25.394;2023-05-15T09:31:36;17.60;;;11.10;;
52590;SDS011;38483;42.620;25.394;2023-05-15T09:34:03;15.00;;;10.20;;
52590;SDS011;38483;42.620;25.394;2023-05-15T09:36:31;13.47;;;9.97;;
52590;SDS011;38483;42.620;25.394;2023-05-15T09:38:59;15.20;;;11.50;;
52590;SDS011;38483;42.620;25.394;2023-05-15T09:41:27;13.33;;;10.53;;
52590;SDS011;38483;42.620;25.394;2023-05-15T09:43:54;19.53;;;10.60;;
52590;SDS011;38483;42.620;25.394;2023-05-15T09:46:25;15.30;;;10.83;;
52590;SDS011;38483;42.620;25.394;2023-05-15T09:48:55;16.40;;;10.27;;
52590;SDS011;38483;42.620;25.394;2023-05-15T09:51:22;15.77;;;10.80;;
52590;SDS011;38483;42.620;25.394;2023-05-15T09:53:52;18.43;;;11.20;;
52590;SDS011;38483;42.620;25.394;2023-05-15T09:56:21;14.83;;;11.83;;
52590;SDS011;38483;42.620;25.394;2023-05-15T09:58:52;15.53;;;10.67;;
52590;SDS011;38483;42.620;25.394;2023-05-15T10:01:20;20.70;;;11.37;;
52590;SDS011;38483;42.620;25.394;2023-05-15T10:03:58;18.43;;;10.87;;
52590;SDS011;38483;42.620;25.394;2023-05-15T10:06:25;17.30;;;11.17;;
52590;SDS011;38483;42.620;25.394;2023-05-15T10:08:52;16.00;;;10.63;;
52590;SDS011;38483;42.620;25.394;2023-05-15T10:11:20;14.03;;;11.37;;
52590;SDS011;38483;42.620;25.394;2023-05-15T10:13:49;14.60;;;12.30;;
52590;SDS011;38483;42.620;25.394;2023-05-15T10:16:17;16.40;;;11.37;;
52590;SDS011;38483;42.620;25.394;2023-05-15T10:18:45;16.23;;;11.50;;
52590;SDS011;38483;42.620;25.394;2023-05-15T10:21:14;15.27;;;11.73;;
52590;SDS011;38483;42.620;25.394;2023-05-15T10:23:44;16.00;;;11.80;;
52590;SDS011;38483;42.620;25.394;2023-05-15T10:26:14;14.83;;;12.17;;
52590;SDS011;38483;42.620;25.394;2023-05-15T10:28:58;15.93;;;11.93;;
52590;SDS011;38483;42.620;25.394;2023-05-15T10:31:26;20.20;;;11.97;;
52590;SDS011;38483;42.620;25.394;2023-05-15T10:33:55;18.33;;;12.70;;
52590;SDS011;38483;42.620;25.394;2023-05-15T10:36:23;19.33;;;13.63;;
52590;SDS011;38483;42.620;25.394;2023-05-15T10:38:51;16.63;;;10.73;;
52590;SDS011;38483;42.620;25.394;2023-05-15T10:41:19;13.37;;;11.00;;
52590;SDS011;38483;42.620;25.394;2023-05-15T10:43:48;13.23;;;11.23;;
52590;SDS011;38483;42.620;25.394;2023-05-15T10:46:15;13.17;;;10.20;;
52590;SDS011;38483;42.620;25.394;2023-05-15T10:48:42;15.57;;;10.93;;
52590;SDS011;38483;42.620;25.394;2023-05-15T10:51:13;12.77;;;10.40;;
52590;SDS011;38483;42.620;25.394;2023-05-15T10:53:44;14.90;;;10.30;;
52590;SDS011;38483;42.620;25.394;2023-05-15T10:56:15;13.57;;;10.80;;
52590;SDS011;38483;42.620;25.394;2023-05-15T10:58:43;11.77;;;10.20;;
52590;SDS011;38483;42.620;25.394;2023-05-15T11:01:23;13.60;;;10.57;;
52590;SDS011;38483;42.620;25.394;2023-05-15T11:04:16;11.00;;;8.73;;
52590;SDS011;38483;42.620;25.394;2023-05-15T11:06:47;11.60;;;9.03;;
52590;SDS011;38483;42.620;25.394;2023-05-15T11:14:24;10.77;;;9.03;;
52590;SDS011;38483;42.620;25.394;2023-05-15T11:16:55;12.80;;;9.83;;
52590;SDS011;38483;42.620;25.394;2023-05-15T11:24:57;15.47;;;9.23;;
52590;SDS011;38483;42.620;25.394;2023-05-15T11:32:57;8.93;;;7.20;;
52590;SDS011;38483;42.620;25.394;2023-05-15T11:35:31;10.23;;;7.67;;
52590;SDS011;38483;42.620;25.394;2023-05-15T11:38:03;14.23;;;7.87;;
52590;SDS011;38483;42.620;25.394;2023-05-15T11:40:31;8.53;;;7.03;;
52590;SDS011;38483;42.620;25.394;2023-05-15T11:43:20;12.90;;;6.97;;
52590;SDS011;38483;42.620;25.394;2023-05-15T11:48:36;9.70;;;7.60;;
52590;SDS011;38483;42.620;25.394;2023-05-15T11:54:11;7.17;;;6.20;;
52590;SDS011;38483;42.620;25.394;2023-05-15T11:56:42;8.73;;;6.10;;
52590;SDS011;38483;42.620;25.394;2023-05-15T12:00:03;8.43;;;5.27;;
52590;SDS011;38483;42.620;25.394;2023-05-15T12:02:53;7.20;;;5.80;;
52590;SDS011;38483;42.620;25.394;2023-05-15T12:05:20;5.50;;;4.83;;
52590;SDS011;38483;42.620;25.394;2023-05-15T12:07:48;7.67;;;5.60;;
52590;SDS011;38483;42.620;25.394;2023-05-15T12:10:15;7.57;;;5.97;;
52590;SDS011;38483;42.620;25.394;2023-05-15T12:12:43;8.60;;;5.53;;
52590;SDS011;38483;42.620;25.394;2023-05-15T12:15:15;10.53;;;4.90;;
52590;SDS011;38483;42.620;25.394;2023-05-15T12:17:43;8.37;;;5.80;;
52590;SDS011;38483;42.620;25.394;2023-05-15T12:20:15;7.53;;;5.67;;
52590;SDS011;38483;42.620;25.394;2023-05-15T12:22:44;7.43;;;5.47;;
52590;SDS011;38483;42.620;25.394;2023-05-15T12:25:11;8.80;;;5.80;;
52590;SDS011;38483;42.620;25.394;2023-05-15T12:27:40;8.70;;;6.20;;
52590;SDS011;38483;42.620;25.394;2023-05-15T12:30:08;7.40;;;5.53;;
52590;SDS011;38483;42.620;25.394;2023-05-15T12:32:36;8.93;;;5.90;;
52590;SDS011;38483;42.620;25.394;2023-05-15T12:35:04;8.77;;;5.97;;
52590;SDS011;38483;42.620;25.394;2023-05-15T12:37:33;7.43;;;6.17;;
52590;SDS011;38483;42.620;25.394;2023-05-15T12:40:02;10.87;;;6.07;;
52590;SDS011;38483;42.620;25.394;2023-05-15T12:42:38;7.73;;;6.23;;
52590;SDS011;38483;42.620;25.394;2023-05-15T12:45:16;6.67;;;5.97;;
52590;SDS011;38483;42.620;25.394;2023-05-15T12:47:45;7.43;;;6.33;;
52590;SDS011;38483;42.620;25.394;2023-05-15T12:50:16;8.67;;;5.80;;
52590;SDS011;38483;42.620;25.394;2023-05-15T12:55:22;9.83;;;6.10;;
52590;SDS011;38483;42.620;25.394;2023-05-15T12:58:12;6.80;;;6.00;;
52590;SDS011;38483;42.620;25.394;2023-05-15T13:00:40;7.37;;;6.07;;
52590;SDS011;38483;42.620;25.394;2023-05-15T13:03:08;8.03;;;6.10;;
52590;SDS011;38483;42.620;25.394;2023-05-15T13:05:37;7.37;;;6.27;;
52590;SDS011;38483;42.620;25.394;2023-05-15T13:08:05;41.90;;;18.20;;
52590;SDS011;38483;42.620;25.394;2023-05-15T13:10:35;24.53;;;10.17;;
52590;SDS011;38483;42.620;25.394;2023-05-15T13:13:03;7.90;;;6.17;;
52590;SDS011;38483;42.620;25.394;2023-05-15T13:15:31;6.63;;;5.93;;
52590;SDS011;38483;42.620;25.394;2023-05-15T13:18:04;13.13;;;7.67;;
52590;SDS011;38483;42.620;25.394;2023-05-15T13:23:06;15.60;;;9.10;;
52590;SDS011;38483;42.620;25.394;2023-05-15T13:25:34;11.97;;;7.87;;
52590;SDS011;38483;42.620;25.394;2023-05-15T13:28:02;8.97;;;6.80;;
52590;SDS011;38483;42.620;25.394;2023-05-15T13:30:31;7.17;;;5.63;;
52590;SDS011;38483;42.620;25.394;2023-05-15T13:33:00;6.70;;;5.70;;
52590;SDS011;38483;42.620;25.394;2023-05-15T13:35:28;6.30;;;5.17;;
52590;SDS011;38483;42.620;25.394;2023-05-15T13:37:55;6.33;;;5.37;;
52590;SDS011;38483;42.620;25.394;2023-05-15T13:40:22;11.93;;;7.00;;
52590;SDS011;38483;42.620;25.394;2023-05-15T13:43:43;10.73;;;5.90;;
52590;SDS011;38483;42.620;25.394;2023-05-15T13:47:04;8.27;;;5.90;;
52590;SDS011;38483;42.620;25.394;2023-05-15T13:50:24;25.20;;;14.60;;
52590;SDS011;38483;42.620;25.394;2023-05-15T13:53:45;10.00;;;6.10;;
52590;SDS011;38483;42.620;25.394;2023-05-15T13:57:07;8.50;;;6.83;;
52590;SDS011;38483;42.620;25.394;2023-05-15T14:00:28;6.93;;;5.40;;
52590;SDS011;38483;42.620;25.394;2023-05-15T14:03:49;10.17;;;5.83;;
52590;SDS011;38483;42.620;25.394;2023-05-15T14:07:09;7.83;;;5.37;;
52590;SDS011;38483;42.620;25.394;2023-05-15T14:10:30;10.23;;;6.43;;
52590;SDS011;38483;42.620;25.394;2023-05-15T14:13:51;6.97;;;5.90;;
52590;SDS011;38483;42.620;25.394;2023-05-15T14:17:12;8.30;;;6.00;;
52590;SDS011;38483;42.620;25.394;2023-05-15T14:19:39;6.17;;;5.10;;
52590;SDS011;38483;42.620;25.394;2023-05-15T14:22:07;6.47;;;5.50;;
52590;SDS011;38483;42.620;25.394;2023-05-15T14:24:34;7.77;;;5.47;;
52590;SDS011;38483;42.620;25.394;2023-05-15T14:27:01;8.07;;;5.80;;
52590;SDS011;38483;42.620;25.394;2023-05-15T14:29:29;7.93;;;5.60;;
52590;SDS011;38483;42.620;25.394;2023-05-15T14:31:56;31.00;;;19.57;;
52590;SDS011;38483;42.620;25.394;2023-05-15T14:34:23;18.17;;;12.27;;
52590;SDS011;38483;42.620;25.394;2023-05-15T14:36:49;12.53;;;8.20;;
52590;SDS011;38483;42.620;25.394;2023-05-15T14:39:17;46.53;;;30.17;;
52590;SDS011;38483;42.620;25.394;2023-05-15T14:41:44;12.50;;;8.50;;
52590;SDS011;38483;42.620;25.394;2023-05-15T14:44:12;6.67;;;6.00;;
52590;SDS011;38483;42.620;25.394;2023-05-15T14:46:40;11.53;;;6.67;;
52590;SDS011;38483;42.620;25.394;2023-05-15T14:49:08;11.57;;;6.10;;
52590;SDS011;38483;42.620;25.394;2023-05-15T14:51:36;12.87;;;8.90;;
52590;SDS011;38483;42.620;25.394;2023-05-15T14:54:04;13.73;;;6.93;;
52590;SDS011;38483;42.620;25.394;2023-05-15T14:56:31;9.53;;;6.37;;
52590;SDS011;38483;42.620;25.394;2023-05-15T14:58:58;12.07;;;7.10;;
52590;SDS011;38483;42.620;25.394;2023-05-15T15:01:25;16.57;;;6.90;;
52590;SDS011;38483;42.620;25.394;2023-05-15T15:03:52;8.43;;;5.63;;
52590;SDS011;38483;42.620;25.394;2023-05-15T15:06:19;7.80;;;5.77;;
52590;SDS011;38483;42.620;25.394;2023-05-15T15:08:46;14.17;;;7.00;;
52590;SDS011;38483;42.620;25.394;2023-05-15T15:11:13;9.27;;;5.47;;
52590;SDS011;38483;42.620;25.394;2023-05-15T15:13:41;8.17;;;4.67;;
52590;SDS011;38483;42.620;25.394;2023-05-15T15:16:07;6.23;;;4.93;;
52590;SDS011;38483;42.620;25.394;2023-05-15T15:18:35;11.90;;;5.50;;